sensor_id;sensor_type;location;lat;lon;timestamp;temperature;humidity
33655;DHT22;19997;51.274;22.506;2022-12-07T00:01:17;4.50;98.20
33655;DHT22;19997;51.274;22.506;2022-12-07T00:03:45;4.50;98.50
33655;DHT22;19997;51.274;22.506;2022-12-07T00:06:15;4.50;98.80
33655;DHT22;19997;51.274;22.506;2022-12-07T00:08:42;4.50;99.10
33655;DHT22;19997;51.274;22.506;2022-12-07T00:11:11;4.50;99.20
33655;DHT22;19997;51.274;22.506;2022-12-07T00:13:39;4.50;99.30
33655;DHT22;19997;51.274;22.506;2022-12-07T00:16:10;4.50;99.40
33655;DHT22;19997;51.274;22.506;2022-12-07T00:18:37;4.50;99.50
33655;DHT22;19997;51.274;22.506;2022-12-07T00:21:06;4.60;99.60
33655;DHT22;19997;51.274;22.506;2022-12-07T00:23:33;4.50;99.70
33655;DHT22;19997;51.274;22.506;2022-12-07T00:26:05;4.50;99.80
33655;DHT22;19997;51.274;22.506;2022-12-07T00:28:32;4.60;99.90
33655;DHT22;19997;51.274;22.506;2022-12-07T00:31:02;4.50;99.90
33655;DHT22;19997;51.274;22.506;2022-12-07T00:33:30;4.60;99.90
33655;DHT22;19997;51.274;22.506;2022-12-07T00:35:58;4.50;99.90
33655;DHT22;19997;51.274;22.506;2022-12-07T00:38:27;4.50;99.90
33655;DHT22;19997;51.274;22.506;2022-12-07T00:40:56;4.50;99.90
33655;DHT22;19997;51.274;22.506;2022-12-07T00:43:23;4.50;99.90
33655;DHT22;19997;51.274;22.506;2022-12-07T00:45:51;4.40;99.90
33655;DHT22;19997;51.274;22.506;2022-12-07T00:48:18;4.40;99.90
33655;DHT22;19997;51.274;22.506;2022-12-07T00:50:47;4.40;99.90
33655;DHT22;19997;51.274;22.506;2022-12-07T00:53:14;4.50;99.90
33655;DHT22;19997;51.274;22.506;2022-12-07T00:55:42;4.50;99.90
33655;DHT22;19997;51.274;22.506;2022-12-07T00:58:09;4.50;99.90
33655;DHT22;19997;51.274;22.506;2022-12-07T01:00:37;4.50;99.90
33655;DHT22;19997;51.274;22.506;2022-12-07T01:03:05;4.50;99.90
33655;DHT22;19997;51.274;22.506;2022-12-07T01:05:32;4.50;99.90
33655;DHT22;19997;51.274;22.506;2022-12-07T01:08:01;4.50;99.90
33655;DHT22;19997;51.274;22.506;2022-12-07T01:10:28;4.50;99.90
33655;DHT22;19997;51.274;22.506;2022-12-07T01:12:56;4.60;99.90
33655;DHT22;19997;51.274;22.506;2022-12-07T01:15:23;4.60;99.90
33655;DHT22;19997;51.274;22.506;2022-12-07T01:17:50;4.50;99.90
33655;DHT22;19997;51.274;22.506;2022-12-07T01:20:17;4.60;99.90
33655;DHT22;19997;51.274;22.506;2022-12-07T01:22:44;4.60;99.90
33655;DHT22;19997;51.274;22.506;2022-12-07T01:25:13;4.60;99.90
33655;DHT22;19997;51.274;22.506;2022-12-07T01:27:40;4.60;99.90
33655;DHT22;19997;51.274;22.506;2022-12-07T01:30:08;4.60;99.90
33655;DHT22;19997;51.274;22.506;2022-12-07T01:32:36;4.60;99.90
33655;DHT22;19997;51.274;22.506;2022-12-07T01:35:04;4.60;99.90
33655;DHT22;19997;51.274;22.506;2022-12-07T01:37:34;4.60;99.90
33655;DHT22;19997;51.274;22.506;2022-12-07T01:40:02;4.60;99.90
33655;DHT22;19997;51.274;22.506;2022-12-07T01:42:30;4.60;99.90
33655;DHT22;19997;51.274;22.506;2022-12-07T01:48:01;4.60;99.90
33655;DHT22;19997;51.274;22.506;2022-12-07T01:50:29;4.60;99.90
33655;DHT22;19997;51.274;22.506;2022-12-07T01:52:58;4.60;99.90
33655;DHT22;19997;51.274;22.506;2022-12-07T01:55:26;4.60;99.90
33655;DHT22;19997;51.274;22.506;2022-12-07T01:57:55;4.60;99.90
33655;DHT22;19997;51.274;22.506;2022-12-07T02:00:23;4.60;99.90
33655;DHT22;19997;51.274;22.506;2022-12-07T02:02:53;4.60;99.90
33655;DHT22;19997;51.274;22.506;2022-12-07T02:05:23;4.60;99.90
33655;DHT22;19997;51.274;22.506;2022-12-07T02:07:53;4.60;99.90
33655;DHT22;19997;51.274;22.506;2022-12-07T02:10:22;4.60;99.90
33655;DHT22;19997;51.274;22.506;2022-12-07T02:12:53;4.50;99.90
33655;DHT22;19997;51.274;22.506;2022-12-07T02:15:25;4.50;99.90
33655;DHT22;19997;51.274;22.506;2022-12-07T02:17:58;4.50;99.90
33655;DHT22;19997;51.274;22.506;2022-12-07T02:20:30;4.50;99.90
33655;DHT22;19997;51.274;22.506;2022-12-07T02:23:29;4.50;99.90
33655;DHT22;19997;51.274;22.506;2022-12-07T02:26:21;4.50;99.90
33655;DHT22;19997;51.274;22.506;2022-12-07T02:29:10;4.50;99.90
33655;DHT22;19997;51.274;22.506;2022-12-07T02:31:45;4.40;99.90
33655;DHT22;19997;51.274;22.506;2022-12-07T02:34:20;4.40;99.90
33655;DHT22;19997;51.274;22.506;2022-12-07T02:36:53;4.50;99.90
33655;DHT22;19997;51.274;22.506;2022-12-07T02:39:28;4.50;99.90
33655;DHT22;19997;51.274;22.506;2022-12-07T02:42:02;4.50;99.90
33655;DHT22;19997;51.274;22.506;2022-12-07T02:44:32;4.50;99.90
33655;DHT22;19997;51.274;22.506;2022-12-07T02:47:02;4.50;99.90
33655;DHT22;19997;51.274;22.506;2022-12-07T02:49:30;4.50;99.90
33655;DHT22;19997;51.274;22.506;2022-12-07T02:51:58;4.50;99.90
33655;DHT22;19997;51.274;22.506;2022-12-07T02:54:25;4.50;99.90
33655;DHT22;19997;51.274;22.506;2022-12-07T02:56:57;4.40;99.90
33655;DHT22;19997;51.274;22.506;2022-12-07T02:59:39;4.40;99.90
33655;DHT22;19997;51.274;22.506;2022-12-07T03:02:17;4.40;99.90
33655;DHT22;19997;51.274;22.506;2022-12-07T03:04:52;4.40;99.90
33655;DHT22;19997;51.274;22.506;2022-12-07T03:07:30;4.40;99.90
33655;DHT22;19997;51.274;22.506;2022-12-07T03:10:02;4.40;99.90
33655;DHT22;19997;51.274;22.506;2022-12-07T03:12:40;4.40;99.90
33655;DHT22;19997;51.274;22.506;2022-12-07T03:15:16;4.30;99.90
33655;DHT22;19997;51.274;22.506;2022-12-07T03:17:46;4.20;99.90
33655;DHT22;19997;51.274;22.506;2022-12-07T03:20:17;4.20;99.90
33655;DHT22;19997;51.274;22.506;2022-12-07T03:22:47;4.10;99.90
33655;DHT22;19997;51.274;22.506;2022-12-07T03:25:16;4.00;99.90
33655;DHT22;19997;51.274;22.506;2022-12-07T03:27:48;4.00;99.90
33655;DHT22;19997;51.274;22.506;2022-12-07T03:30:22;4.00;99.90
33655;DHT22;19997;51.274;22.506;2022-12-07T03:32:53;3.90;99.90
33655;DHT22;19997;51.274;22.506;2022-12-07T03:35:24;3.90;99.90
33655;DHT22;19997;51.274;22.506;2022-12-07T03:37:56;3.90;99.90
33655;DHT22;19997;51.274;22.506;2022-12-07T03:40:29;3.90;99.90
33655;DHT22;19997;51.274;22.506;2022-12-07T03:42:57;3.90;99.90
33655;DHT22;19997;51.274;22.506;2022-12-07T03:45:33;3.90;99.90
33655;DHT22;19997;51.274;22.506;2022-12-07T03:48:07;3.80;99.90
33655;DHT22;19997;51.274;22.506;2022-12-07T03:50:41;3.80;99.90
33655;DHT22;19997;51.274;22.506;2022-12-07T03:53:12;3.80;99.90
33655;DHT22;19997;51.274;22.506;2022-12-07T03:55:43;3.70;99.90
33655;DHT22;19997;51.274;22.506;2022-12-07T03:58:13;3.70;99.90
33655;DHT22;19997;51.274;22.506;2022-12-07T04:00:43;3.70;99.90
33655;DHT22;19997;51.274;22.506;2022-12-07T04:03:11;3.60;99.90
33655;DHT22;19997;51.274;22.506;2022-12-07T04:05:38;3.70;99.90
33655;DHT22;19997;51.274;22.506;2022-12-07T04:08:06;3.60;99.90
33655;DHT22;19997;51.274;22.506;2022-12-07T04:10:33;3.60;99.90
33655;DHT22;19997;51.274;22.506;2022-12-07T04:13:00;3.60;99.90
33655;DHT22;19997;51.274;22.506;2022-12-07T04:15:27;3.60;99.90
33655;DHT22;19997;51.274;22.506;2022-12-07T04:17:56;3.60;99.90
33655;DHT22;19997;51.274;22.506;2022-12-07T04:20:23;3.60;99.90
33655;DHT22;19997;51.274;22.506;2022-12-07T04:22:50;3.50;99.90
33655;DHT22;19997;51.274;22.506;2022-12-07T04:25:17;3.50;99.90
33655;DHT22;19997;51.274;22.506;2022-12-07T04:27:44;3.50;99.90
33655;DHT22;19997;51.274;22.506;2022-12-07T04:30:11;3.50;99.90
33655;DHT22;19997;51.274;22.506;2022-12-07T04:32:39;3.50;99.90
33655;DHT22;19997;51.274;22.506;2022-12-07T04:35:08;3.50;99.90
33655;DHT22;19997;51.274;22.506;2022-12-07T04:37:35;3.50;99.90
33655;DHT22;19997;51.274;22.506;2022-12-07T04:40:06;3.50;99.90
33655;DHT22;19997;51.274;22.506;2022-12-07T04:42:34;3.40;99.90
33655;DHT22;19997;51.274;22.506;2022-12-07T04:45:01;3.40;99.90
33655;DHT22;19997;51.274;22.506;2022-12-07T04:47:28;3.40;99.90
33655;DHT22;19997;51.274;22.506;2022-12-07T04:49:55;3.40;99.90
33655;DHT22;19997;51.274;22.506;2022-12-07T04:52:23;3.40;99.90
33655;DHT22;19997;51.274;22.506;2022-12-07T04:54:50;3.40;99.90
33655;DHT22;19997;51.274;22.506;2022-12-07T04:57:17;3.40;99.90
33655;DHT22;19997;51.274;22.506;2022-12-07T04:59:44;3.40;99.90
33655;DHT22;19997;51.274;22.506;2022-12-07T05:02:12;3.30;99.90
33655;DHT22;19997;51.274;22.506;2022-12-07T05:04:39;3.30;99.90
33655;DHT22;19997;51.274;22.506;2022-12-07T05:07:06;3.30;99.90
33655;DHT22;19997;51.274;22.506;2022-12-07T05:09:34;3.30;99.90
33655;DHT22;19997;51.274;22.506;2022-12-07T05:12:01;3.30;99.90
33655;DHT22;19997;51.274;22.506;2022-12-07T05:14:28;3.30;99.90
33655;DHT22;19997;51.274;22.506;2022-12-07T05:16:55;3.30;99.90
33655;DHT22;19997;51.274;22.506;2022-12-07T05:19:22;3.30;99.90
33655;DHT22;19997;51.274;22.506;2022-12-07T05:21:49;3.30;99.90
33655;DHT22;19997;51.274;22.506;2022-12-07T05:24:17;3.30;99.90
33655;DHT22;19997;51.274;22.506;2022-12-07T05:26:45;3.30;99.90
33655;DHT22;19997;51.274;22.506;2022-12-07T05:29:14;3.40;99.90
33655;DHT22;19997;51.274;22.506;2022-12-07T05:31:44;3.30;99.90
33655;DHT22;19997;51.274;22.506;2022-12-07T05:34:11;3.30;99.90
33655;DHT22;19997;51.274;22.506;2022-12-07T05:36:38;3.30;99.90
33655;DHT22;19997;51.274;22.506;2022-12-07T05:39:06;3.30;99.90
33655;DHT22;19997;51.274;22.506;2022-12-07T05:41:33;3.40;99.90
33655;DHT22;19997;51.274;22.506;2022-12-07T05:44:19;3.40;99.90
33655;DHT22;19997;51.274;22.506;2022-12-07T05:46:46;3.40;99.90
33655;DHT22;19997;51.274;22.506;2022-12-07T05:49:13;3.40;99.90
33655;DHT22;19997;51.274;22.506;2022-12-07T05:51:41;3.40;99.90
33655;DHT22;19997;51.274;22.506;2022-12-07T05:54:08;3.40;99.90
33655;DHT22;19997;51.274;22.506;2022-12-07T05:56:35;3.40;99.90
33655;DHT22;19997;51.274;22.506;2022-12-07T05:59:04;3.30;99.90
33655;DHT22;19997;51.274;22.506;2022-12-07T06:01:51;3.40;99.90
33655;DHT22;19997;51.274;22.506;2022-12-07T06:04:19;3.40;99.90
33655;DHT22;19997;51.274;22.506;2022-12-07T06:06:46;3.40;99.90
33655;DHT22;19997;51.274;22.506;2022-12-07T06:09:14;3.40;99.90
33655;DHT22;19997;51.274;22.506;2022-12-07T06:11:41;3.40;99.90
33655;DHT22;19997;51.274;22.506;2022-12-07T06:14:26;3.40;99.90
33655;DHT22;19997;51.274;22.506;2022-12-07T06:16:54;3.40;99.90
33655;DHT22;19997;51.274;22.506;2022-12-07T06:19:21;3.40;99.90
33655;DHT22;19997;51.274;22.506;2022-12-07T06:21:48;3.40;99.90
33655;DHT22;19997;51.274;22.506;2022-12-07T06:24:16;3.40;99.90
33655;DHT22;19997;51.274;22.506;2022-12-07T06:27:07;3.40;99.90
33655;DHT22;19997;51.274;22.506;2022-12-07T06:29:34;3.40;99.90
33655;DHT22;19997;51.274;22.506;2022-12-07T06:32:04;3.40;99.90
33655;DHT22;19997;51.274;22.506;2022-12-07T06:34:32;3.40;99.90
33655;DHT22;19997;51.274;22.506;2022-12-07T06:37:00;3.40;99.90
33655;DHT22;19997;51.274;22.506;2022-12-07T06:39:28;3.40;99.90
33655;DHT22;19997;51.274;22.506;2022-12-07T06:41:55;3.40;99.90
33655;DHT22;19997;51.274;22.506;2022-12-07T06:44:23;3.40;99.90
33655;DHT22;19997;51.274;22.506;2022-12-07T06:46:51;3.50;99.90
33655;DHT22;19997;51.274;22.506;2022-12-07T06:49:20;3.50;99.90
33655;DHT22;19997;51.274;22.506;2022-12-07T06:51:47;3.50;99.90
33655;DHT22;19997;51.274;22.506;2022-12-07T06:54:15;3.50;99.90
33655;DHT22;19997;51.274;22.506;2022-12-07T06:56:42;3.50;99.90
33655;DHT22;19997;51.274;22.506;2022-12-07T06:59:10;3.50;99.90
33655;DHT22;19997;51.274;22.506;2022-12-07T07:01:37;3.50;99.90
33655;DHT22;19997;51.274;22.506;2022-12-07T07:04:05;3.50;99.90
33655;DHT22;19997;51.274;22.506;2022-12-07T07:06:33;3.50;99.90
33655;DHT22;19997;51.274;22.506;2022-12-07T07:09:01;3.50;99.90
33655;DHT22;19997;51.274;22.506;2022-12-07T07:11:28;3.50;99.90
33655;DHT22;19997;51.274;22.506;2022-12-07T07:13:55;3.60;99.90
33655;DHT22;19997;51.274;22.506;2022-12-07T07:16:28;3.60;99.90
33655;DHT22;19997;51.274;22.506;2022-12-07T07:18:55;3.60;99.90
33655;DHT22;19997;51.274;22.506;2022-12-07T07:21:22;3.60;99.90
33655;DHT22;19997;51.274;22.506;2022-12-07T07:23:51;3.60;99.90
33655;DHT22;19997;51.274;22.506;2022-12-07T07:26:19;3.70;99.90
33655;DHT22;19997;51.274;22.506;2022-12-07T07:28:46;3.70;99.90
33655;DHT22;19997;51.274;22.506;2022-12-07T07:31:13;3.70;99.90
33655;DHT22;19997;51.274;22.506;2022-12-07T07:33:40;3.70;99.90
33655;DHT22;19997;51.274;22.506;2022-12-07T07:36:08;3.70;99.90
33655;DHT22;19997;51.274;22.506;2022-12-07T07:38:35;3.70;99.90
33655;DHT22;19997;51.274;22.506;2022-12-07T07:41:03;3.80;99.90
33655;DHT22;19997;51.274;22.506;2022-12-07T07:43:33;3.80;99.90
33655;DHT22;19997;51.274;22.506;2022-12-07T07:46:00;3.80;99.90
33655;DHT22;19997;51.274;22.506;2022-12-07T07:48:27;3.80;99.90
33655;DHT22;19997;51.274;22.506;2022-12-07T07:50:54;3.80;99.90
33655;DHT22;19997;51.274;22.506;2022-12-07T07:53:21;3.70;99.90
33655;DHT22;19997;51.274;22.506;2022-12-07T07:55:51;3.70;99.90
33655;DHT22;19997;51.274;22.506;2022-12-07T07:58:21;3.70;99.90
33655;DHT22;19997;51.274;22.506;2022-12-07T08:00:48;3.70;99.90
33655;DHT22;19997;51.274;22.506;2022-12-07T08:03:15;3.70;99.90
33655;DHT22;19997;51.274;22.506;2022-12-07T08:05:43;3.70;99.90
33655;DHT22;19997;51.274;22.506;2022-12-07T08:08:10;3.70;99.90
33655;DHT22;19997;51.274;22.506;2022-12-07T08:10:37;3.70;99.90
33655;DHT22;19997;51.274;22.506;2022-12-07T08:13:04;3.70;99.90
33655;DHT22;19997;51.274;22.506;2022-12-07T08:15:43;3.70;99.90
33655;DHT22;19997;51.274;22.506;2022-12-07T08:18:11;3.70;99.90
33655;DHT22;19997;51.274;22.506;2022-12-07T08:20:39;3.70;99.90
33655;DHT22;19997;51.274;22.506;2022-12-07T08:23:08;3.70;99.90
33655;DHT22;19997;51.274;22.506;2022-12-07T08:25:36;3.70;99.90
33655;DHT22;19997;51.274;22.506;2022-12-07T08:28:03;3.70;99.90
33655;DHT22;19997;51.274;22.506;2022-12-07T08:30:30;3.70;99.90
33655;DHT22;19997;51.274;22.506;2022-12-07T08:32:59;3.70;99.90
33655;DHT22;19997;51.274;22.506;2022-12-07T08:35:26;3.70;99.90
33655;DHT22;19997;51.274;22.506;2022-12-07T08:37:53;3.70;99.90
33655;DHT22;19997;51.274;22.506;2022-12-07T08:40:20;3.70;99.90
33655;DHT22;19997;51.274;22.506;2022-12-07T08:42:49;3.70;99.90
33655;DHT22;19997;51.274;22.506;2022-12-07T08:45:17;3.80;99.90
33655;DHT22;19997;51.274;22.506;2022-12-07T08:47:47;3.80;99.90
33655;DHT22;19997;51.274;22.506;2022-12-07T08:50:17;3.80;99.90
33655;DHT22;19997;51.274;22.506;2022-12-07T08:52:44;3.90;99.90
33655;DHT22;19997;51.274;22.506;2022-12-07T08:55:14;3.90;99.90
33655;DHT22;19997;51.274;22.506;2022-12-07T08:57:41;3.80;99.90
33655;DHT22;19997;51.274;22.506;2022-12-07T09:00:09;3.80;99.90
33655;DHT22;19997;51.274;22.506;2022-12-07T09:02:36;3.80;99.90
33655;DHT22;19997;51.274;22.506;2022-12-07T09:05:04;3.80;99.90
33655;DHT22;19997;51.274;22.506;2022-12-07T09:07:34;3.80;99.90
33655;DHT22;19997;51.274;22.506;2022-12-07T09:10:01;3.80;99.90
33655;DHT22;19997;51.274;22.506;2022-12-07T09:12:28;3.80;99.90
33655;DHT22;19997;51.274;22.506;2022-12-07T09:14:55;3.70;99.90
33655;DHT22;19997;51.274;22.506;2022-12-07T09:17:22;3.70;99.90
33655;DHT22;19997;51.274;22.506;2022-12-07T09:19:50;3.70;99.90
33655;DHT22;19997;51.274;22.506;2022-12-07T09:22:17;3.70;99.90
33655;DHT22;19997;51.274;22.506;2022-12-07T09:24:46;3.70;99.90
33655;DHT22;19997;51.274;22.506;2022-12-07T09:27:13;3.70;99.90
33655;DHT22;19997;51.274;22.506;2022-12-07T09:29:43;3.70;99.90
33655;DHT22;19997;51.274;22.506;2022-12-07T09:32:10;3.80;99.90
33655;DHT22;19997;51.274;22.506;2022-12-07T09:34:37;3.80;99.90
33655;DHT22;19997;51.274;22.506;2022-12-07T09:37:04;3.70;99.90
33655;DHT22;19997;51.274;22.506;2022-12-07T09:39:32;3.70;99.90
33655;DHT22;19997;51.274;22.506;2022-12-07T09:42:04;3.70;99.90
33655;DHT22;19997;51.274;22.506;2022-12-07T09:44:31;3.70;99.90
33655;DHT22;19997;51.274;22.506;2022-12-07T09:46:59;3.70;99.90
33655;DHT22;19997;51.274;22.506;2022-12-07T09:49:29;3.60;99.90
33655;DHT22;19997;51.274;22.506;2022-12-07T09:52:02;3.60;99.90
33655;DHT22;19997;51.274;22.506;2022-12-07T09:54:29;3.60;99.90
33655;DHT22;19997;51.274;22.506;2022-12-07T09:56:59;3.60;99.90
33655;DHT22;19997;51.274;22.506;2022-12-07T09:59:26;3.60;99.90
33655;DHT22;19997;51.274;22.506;2022-12-07T10:01:53;3.60;99.90
33655;DHT22;19997;51.274;22.506;2022-12-07T10:04:22;3.60;99.90
33655;DHT22;19997;51.274;22.506;2022-12-07T10:06:50;3.60;99.90
33655;DHT22;19997;51.274;22.506;2022-12-07T10:09:19;3.70;99.90
33655;DHT22;19997;51.274;22.506;2022-12-07T10:12:01;3.70;99.90
33655;DHT22;19997;51.274;22.506;2022-12-07T10:14:30;3.80;99.90
33655;DHT22;19997;51.274;22.506;2022-12-07T10:16:57;3.80;99.90
33655;DHT22;19997;51.274;22.506;2022-12-07T10:19:27;3.80;99.90
33655;DHT22;19997;51.274;22.506;2022-12-07T10:22:03;3.80;99.90
33655;DHT22;19997;51.274;22.506;2022-12-07T10:24:30;3.80;99.90
33655;DHT22;19997;51.274;22.506;2022-12-07T10:26:59;3.80;99.90
33655;DHT22;19997;51.274;22.506;2022-12-07T10:29:29;3.80;99.90
33655;DHT22;19997;51.274;22.506;2022-12-07T10:31:59;3.80;99.90
33655;DHT22;19997;51.274;22.506;2022-12-07T10:34:28;3.80;99.90
33655;DHT22;19997;51.274;22.506;2022-12-07T10:37:13;3.80;99.90
33655;DHT22;19997;51.274;22.506;2022-12-07T10:39:42;3.80;99.90
33655;DHT22;19997;51.274;22.506;2022-12-07T10:42:18;3.80;99.90
33655;DHT22;19997;51.274;22.506;2022-12-07T10:44:46;3.90;99.90
33655;DHT22;19997;51.274;22.506;2022-12-07T10:47:26;3.90;99.90
33655;DHT22;19997;51.274;22.506;2022-12-07T10:56:20;3.80;99.90
33655;DHT22;19997;51.274;22.506;2022-12-07T10:59:01;3.80;99.90
33655;DHT22;19997;51.274;22.506;2022-12-07T11:01:34;3.80;99.90
33655;DHT22;19997;51.274;22.506;2022-12-07T11:04:18;3.80;99.90
33655;DHT22;19997;51.274;22.506;2022-12-07T11:06:54;3.80;99.90
33655;DHT22;19997;51.274;22.506;2022-12-07T11:12:25;3.80;99.90
33655;DHT22;19997;51.274;22.506;2022-12-07T11:15:01;3.80;99.90
33655;DHT22;19997;51.274;22.506;2022-12-07T11:17:36;3.80;99.90
33655;DHT22;19997;51.274;22.506;2022-12-07T11:20:20;3.90;99.90
33655;DHT22;19997;51.274;22.506;2022-12-07T11:22:57;3.90;99.90
33655;DHT22;19997;51.274;22.506;2022-12-07T11:25:32;4.00;99.90
33655;DHT22;19997;51.274;22.506;2022-12-07T11:28:15;4.00;99.90
33655;DHT22;19997;51.274;22.506;2022-12-07T11:30:52;4.00;99.90
33655;DHT22;19997;51.274;22.506;2022-12-07T11:33:27;4.00;99.90
33655;DHT22;19997;51.274;22.506;2022-12-07T11:36:07;3.90;99.90
33655;DHT22;19997;51.274;22.506;2022-12-07T11:38:42;3.90;99.90
33655;DHT22;19997;51.274;22.506;2022-12-07T11:41:11;4.00;99.90
33655;DHT22;19997;51.274;22.506;2022-12-07T11:43:53;3.90;99.90
33655;DHT22;19997;51.274;22.506;2022-12-07T11:46:25;3.90;99.90
33655;DHT22;19997;51.274;22.506;2022-12-07T11:48:58;3.90;99.90
33655;DHT22;19997;51.274;22.506;2022-12-07T11:51:30;4.00;99.90
33655;DHT22;19997;51.274;22.506;2022-12-07T11:54:02;4.00;99.90
33655;DHT22;19997;51.274;22.506;2022-12-07T11:56:30;4.00;99.90
33655;DHT22;19997;51.274;22.506;2022-12-07T11:59:11;4.00;99.90
33655;DHT22;19997;51.274;22.506;2022-12-07T12:01:50;4.00;99.90
33655;DHT22;19997;51.274;22.506;2022-12-07T12:04:40;4.00;99.90
33655;DHT22;19997;51.274;22.506;2022-12-07T12:07:10;4.00;99.90
33655;DHT22;19997;51.274;22.506;2022-12-07T12:09:46;4.10;99.90
33655;DHT22;19997;51.274;22.506;2022-12-07T12:15:22;4.20;99.90
33655;DHT22;19997;51.274;22.506;2022-12-07T12:18:24;4.20;99.90
33655;DHT22;19997;51.274;22.506;2022-12-07T12:20:57;4.20;99.90
33655;DHT22;19997;51.274;22.506;2022-12-07T12:23:32;4.20;99.90
33655;DHT22;19997;51.274;22.506;2022-12-07T12:26:05;4.20;99.90
33655;DHT22;19997;51.274;22.506;2022-12-07T12:28:37;4.20;99.90
33655;DHT22;19997;51.274;22.506;2022-12-07T12:31:09;4.20;99.90
33655;DHT22;19997;51.274;22.506;2022-12-07T12:33:45;4.10;99.90
33655;DHT22;19997;51.274;22.506;2022-12-07T12:36:24;4.10;99.90
33655;DHT22;19997;51.274;22.506;2022-12-07T12:39:09;4.10;99.90
33655;DHT22;19997;51.274;22.506;2022-12-07T12:41:59;4.10;99.90
33655;DHT22;19997;51.274;22.506;2022-12-07T12:50:32;4.10;99.90
33655;DHT22;19997;51.274;22.506;2022-12-07T12:53:19;4.10;99.90
33655;DHT22;19997;51.274;22.506;2022-12-07T12:59:25;4.20;99.90
33655;DHT22;19997;51.274;22.506;2022-12-07T13:01:55;4.30;99.90
33655;DHT22;19997;51.274;22.506;2022-12-07T13:04:51;4.30;99.90
33655;DHT22;19997;51.274;22.506;2022-12-07T13:10:39;4.10;99.90
33655;DHT22;19997;51.274;22.506;2022-12-07T13:13:32;4.10;99.90
33655;DHT22;19997;51.274;22.506;2022-12-07T13:16:36;4.10;99.90
33655;DHT22;19997;51.274;22.506;2022-12-07T13:25:08;4.00;99.90
33655;DHT22;19997;51.274;22.506;2022-12-07T13:27:40;4.00;99.90
33655;DHT22;19997;51.274;22.506;2022-12-07T13:30:14;4.00;99.90
33655;DHT22;19997;51.274;22.506;2022-12-07T13:32:43;3.90;99.90
33655;DHT22;19997;51.274;22.506;2022-12-07T13:35:32;3.90;99.90
33655;DHT22;19997;51.274;22.506;2022-12-07T13:38:02;3.90;99.90
33655;DHT22;19997;51.274;22.506;2022-12-07T13:40:30;4.00;99.90
33655;DHT22;19997;51.274;22.506;2022-12-07T13:43:00;4.00;99.90
33655;DHT22;19997;51.274;22.506;2022-12-07T13:45:29;4.00;99.90
33655;DHT22;19997;51.274;22.506;2022-12-07T13:48:16;4.00;99.90
33655;DHT22;19997;51.274;22.506;2022-12-07T13:50:53;4.00;99.90
33655;DHT22;19997;51.274;22.506;2022-12-07T13:53:21;4.00;99.90
33655;DHT22;19997;51.274;22.506;2022-12-07T13:55:48;4.00;99.90
33655;DHT22;19997;51.274;22.506;2022-12-07T13:58:17;3.90;99.90
33655;DHT22;19997;51.274;22.506;2022-12-07T14:00:44;3.90;99.90
33655;DHT22;19997;51.274;22.506;2022-12-07T14:03:28;3.90;99.90
33655;DHT22;19997;51.274;22.506;2022-12-07T14:06:10;3.80;99.90
33655;DHT22;19997;51.274;22.506;2022-12-07T14:08:40;3.80;99.90
33655;DHT22;19997;51.274;22.506;2022-12-07T14:11:09;3.80;99.90
33655;DHT22;19997;51.274;22.506;2022-12-07T14:13:44;3.80;99.90
33655;DHT22;19997;51.274;22.506;2022-12-07T14:16:23;3.80;99.90
33655;DHT22;19997;51.274;22.506;2022-12-07T14:18:51;3.80;99.90
33655;DHT22;19997;51.274;22.506;2022-12-07T14:21:20;3.80;99.90
33655;DHT22;19997;51.274;22.506;2022-12-07T14:24:14;3.80;99.90
33655;DHT22;19997;51.274;22.506;2022-12-07T14:26:43;3.80;99.90
33655;DHT22;19997;51.274;22.506;2022-12-07T14:29:30;3.90;99.90
33655;DHT22;19997;51.274;22.506;2022-12-07T14:32:13;3.80;99.90
33655;DHT22;19997;51.274;22.506;2022-12-07T14:34:56;3.80;99.90
33655;DHT22;19997;51.274;22.506;2022-12-07T14:37:24;3.80;99.90
33655;DHT22;19997;51.274;22.506;2022-12-07T14:39:51;3.70;99.90
33655;DHT22;19997;51.274;22.506;2022-12-07T14:42:18;3.70;99.90
33655;DHT22;19997;51.274;22.506;2022-12-07T14:44:47;3.70;99.90
33655;DHT22;19997;51.274;22.506;2022-12-07T14:47:15;3.70;99.90
33655;DHT22;19997;51.274;22.506;2022-12-07T14:49:42;3.60;99.90
33655;DHT22;19997;51.274;22.506;2022-12-07T14:52:14;3.60;99.90
33655;DHT22;19997;51.274;22.506;2022-12-07T14:54:42;3.60;99.90
33655;DHT22;19997;51.274;22.506;2022-12-07T14:57:10;3.70;99.90
33655;DHT22;19997;51.274;22.506;2022-12-07T14:59:37;3.70;99.90
33655;DHT22;19997;51.274;22.506;2022-12-07T15:02:06;3.70;99.90
33655;DHT22;19997;51.274;22.506;2022-12-07T15:04:33;3.70;99.90
33655;DHT22;19997;51.274;22.506;2022-12-07T15:07:03;3.80;99.90
33655;DHT22;19997;51.274;22.506;2022-12-07T15:09:31;3.80;99.90
33655;DHT22;19997;51.274;22.506;2022-12-07T15:11:58;3.80;99.90
33655;DHT22;19997;51.274;22.506;2022-12-07T15:14:25;3.80;99.90
33655;DHT22;19997;51.274;22.506;2022-12-07T15:16:52;3.80;99.90
33655;DHT22;19997;51.274;22.506;2022-12-07T15:19:22;3.80;99.90
33655;DHT22;19997;51.274;22.506;2022-12-07T15:21:52;3.80;99.90
33655;DHT22;19997;51.274;22.506;2022-12-07T15:24:19;3.80;99.90
33655;DHT22;19997;51.274;22.506;2022-12-07T15:26:47;3.80;99.90
33655;DHT22;19997;51.274;22.506;2022-12-07T15:29:14;3.80;99.90
33655;DHT22;19997;51.274;22.506;2022-12-07T15:31:42;3.90;99.90
33655;DHT22;19997;51.274;22.506;2022-12-07T15:34:09;3.90;99.90
33655;DHT22;19997;51.274;22.506;2022-12-07T15:36:38;3.80;99.90
33655;DHT22;19997;51.274;22.506;2022-12-07T15:39:05;3.80;99.90
33655;DHT22;19997;51.274;22.506;2022-12-07T15:41:32;3.80;99.90
33655;DHT22;19997;51.274;22.506;2022-12-07T15:43:59;3.80;99.90
33655;DHT22;19997;51.274;22.506;2022-12-07T15:46:43;3.80;99.90
33655;DHT22;19997;51.274;22.506;2022-12-07T15:49:12;3.80;99.90
33655;DHT22;19997;51.274;22.506;2022-12-07T15:51:42;3.80;99.90
33655;DHT22;19997;51.274;22.506;2022-12-07T15:54:13;3.90;99.90
33655;DHT22;19997;51.274;22.506;2022-12-07T15:56:43;3.90;99.90
33655;DHT22;19997;51.274;22.506;2022-12-07T15:59:10;3.80;99.90
33655;DHT22;19997;51.274;22.506;2022-12-07T16:01:37;3.90;99.90
33655;DHT22;19997;51.274;22.506;2022-12-07T16:04:04;3.90;99.90
33655;DHT22;19997;51.274;22.506;2022-12-07T16:06:31;3.90;99.90
33655;DHT22;19997;51.274;22.506;2022-12-07T16:09:00;3.90;99.90
33655;DHT22;19997;51.274;22.506;2022-12-07T16:11:27;3.80;99.90
33655;DHT22;19997;51.274;22.506;2022-12-07T16:13:54;3.80;99.90
33655;DHT22;19997;51.274;22.506;2022-12-07T16:16:21;3.80;99.90
33655;DHT22;19997;51.274;22.506;2022-12-07T16:18:49;3.80;99.90
33655;DHT22;19997;51.274;22.506;2022-12-07T16:21:17;3.70;99.90
33655;DHT22;19997;51.274;22.506;2022-12-07T16:23:44;3.80;99.90
33655;DHT22;19997;51.274;22.506;2022-12-07T16:26:15;3.80;99.90